createdAt,value
2023-05-16T00:02:32.407Z,39.50
2023-05-16T00:07:36.646Z,30.30
2023-05-16T00:12:42.481Z,35.45
2023-05-16T00:17:47.317Z,24.38
2023-05-16T00:22:51.496Z,26.00
2023-05-16T00:27:56.985Z,22.42
2023-05-16T00:33:01.147Z,19.25
2023-05-16T00:38:06.509Z,27.58
2023-05-16T00:43:12.386Z,27.08
2023-05-16T00:48:16.977Z,28.00
2023-05-16T00:53:21.774Z,23.70
2023-05-16T00:58:27.982Z,17.67
2023-05-16T01:03:32.365Z,16.42
2023-05-16T01:08:37.015Z,15.48
2023-05-16T01:13:56.955Z,17.60
2023-05-16T01:19:16.696Z,17.27
2023-05-16T01:24:34.705Z,20.45
2023-05-16T01:29:40.395Z,17.02
2023-05-16T01:34:44.557Z,11.90
2023-05-16T01:39:56.141Z,17.27
2023-05-16T01:45:09.973Z,14.95
2023-05-16T01:50:17.788Z,19.52
2023-05-16T01:55:31.206Z,12.90
2023-05-16T02:00:38.289Z,17.50
2023-05-16T02:05:43.180Z,15.63
2023-05-16T02:10:50.722Z,21.35
2023-05-16T02:15:56.726Z,15.35
2023-05-16T02:21:01.425Z,17.83
2023-05-16T02:26:05.710Z,16.95
2023-05-16T02:31:11.449Z,11.80
2023-05-16T02:36:16.494Z,17.95
2023-05-16T02:41:22.571Z,12.23
2023-05-16T02:46:30.941Z,12.10
2023-05-16T02:51:35.121Z,10.37
2023-05-16T02:56:39.389Z,16.45
2023-05-16T03:01:45.043Z,9.60
2023-05-16T03:06:49.340Z,10.70
2023-05-16T03:11:54.718Z,10.23
2023-05-16T03:17:00.244Z,14.77
2023-05-16T03:22:05.237Z,17.73
2023-05-16T03:27:09.483Z,13.50
2023-05-16T03:32:14.844Z,15.98
2023-05-16T03:37:19.384Z,19.58
2023-05-16T03:42:23.502Z,15.77
2023-05-16T03:47:31.402Z,18.48
2023-05-16T03:52:35.781Z,21.45
2023-05-16T03:57:39.901Z,24.13
2023-05-16T04:02:45.590Z,22.65
2023-05-16T04:07:49.749Z,24.02
2023-05-16T04:12:53.826Z,28.88
2023-05-16T04:17:59.500Z,29.67
2023-05-16T04:23:04.159Z,30.17
2023-05-16T04:28:08.672Z,29.27
2023-05-16T04:33:14.271Z,29.02
2023-05-16T04:38:18.493Z,32.63
2023-05-16T04:43:22.491Z,34.83
2023-05-16T04:48:28.239Z,30.25
2023-05-16T04:53:32.393Z,41.25
2023-05-16T04:58:36.817Z,27.52
2023-05-16T05:03:42.293Z,46.25
2023-05-16T05:08:46.603Z,34.35
2023-05-16T05:13:52.730Z,30.70
2023-05-16T05:18:58.858Z,32.45
2023-05-16T05:24:02.972Z,38.35
2023-05-16T05:29:07.225Z,22.38
2023-05-16T05:34:12.956Z,26.38
2023-05-16T05:39:17.348Z,26.40
2023-05-16T05:44:21.424Z,26.77
2023-05-16T05:49:27.730Z,24.30
2023-05-16T05:54:31.860Z,24.67
2023-05-16T05:59:36.083Z,20.70
2023-05-16T06:04:43.473Z,16.63
2023-05-16T06:09:47.516Z,16.63
2023-05-16T06:14:51.730Z,23.33
2023-05-16T06:19:57.339Z,21.67
2023-05-16T06:25:02.073Z,19.38
2023-05-16T06:30:07.688Z,17.13
2023-05-16T06:35:16.681Z,16.77
2023-05-16T06:40:21.790Z,28.40
2023-05-16T06:45:26.282Z,21.75
2023-05-16T06:50:31.987Z,14.90
2023-05-16T06:55:37.678Z,11.52
2023-05-16T07:00:44.178Z,15.45
2023-05-16T07:05:53.020Z,13.77
2023-05-16T07:10:57.507Z,14.23
2023-05-16T07:16:01.563Z,15.55
2023-05-16T07:21:07.203Z,17.42
2023-05-16T07:26:11.410Z,13.90
2023-05-16T07:31:16.712Z,17.75
2023-05-16T07:36:22.575Z,17.65
2023-05-16T07:41:27.315Z,17.15
2023-05-16T07:46:31.473Z,19.95
2023-05-16T07:51:38.262Z,23.05
2023-05-16T07:56:43.781Z,23.77
2023-05-16T08:01:48.141Z,17.15
2023-05-16T08:06:53.638Z,17.67
2023-05-16T08:11:57.995Z,16.23
2023-05-16T08:17:02.536Z,26.85
2023-05-16T08:22:11.014Z,21.40
2023-05-16T08:27:15.355Z,17.30
2023-05-16T08:32:19.504Z,20.92
2023-05-16T08:37:25.190Z,18.77
2023-05-16T08:42:29.901Z,13.70
2023-05-16T08:47:37.030Z,10.40
2023-05-16T08:52:45.275Z,9.68
2023-05-16T08:57:52.195Z,9.10
2023-05-16T09:02:57.004Z,13.02
2023-05-16T09:08:02.804Z,7.80
2023-05-16T09:13:07.123Z,9.35
2023-05-16T09:18:15.365Z,10.13
2023-05-16T09:23:25.815Z,14.17
2023-05-16T09:28:30.576Z,11.35
2023-05-16T09:33:34.762Z,11.10
2023-05-16T09:38:41.373Z,8.55
2023-05-16T09:43:46.673Z,6.78
2023-05-16T09:48:52.345Z,9.95
2023-05-16T09:53:59.913Z,16.17
2023-05-16T09:59:13.283Z,6.85
2023-05-16T10:04:17.435Z,14.68
2023-05-16T10:09:24.508Z,10.75
2023-05-16T10:14:28.832Z,10.02
2023-05-16T10:19:37.545Z,13.63
2023-05-16T10:24:49.379Z,10.52
2023-05-16T10:29:55.123Z,15.05
2023-05-16T10:35:03.398Z,19.80
2023-05-16T10:40:10.990Z,20.13
2023-05-16T10:45:19.837Z,21.85
2023-05-16T10:50:38.218Z,19.88
2023-05-16T10:55:47.075Z,12.47
2023-05-16T11:06:01.238Z,9.95
2023-05-16T11:11:46.529Z,9.63
2023-05-16T11:16:53.816Z,13.13
2023-05-16T11:22:27.071Z,13.88
2023-05-16T11:27:34.241Z,14.43
2023-05-16T11:32:39.930Z,18.90
2023-05-16T11:37:44.934Z,11.40
2023-05-16T11:42:50.623Z,8.85
2023-05-16T11:47:54.844Z,15.88
2023-05-16T11:52:59.241Z,11.73
2023-05-16T11:58:05.226Z,9.18
2023-05-16T12:03:09.459Z,24.17
2023-05-16T12:08:13.925Z,10.23
2023-05-16T12:13:20.760Z,12.63
2023-05-16T12:18:25.973Z,14.85
2023-05-16T12:23:31.541Z,26.40
2023-05-16T12:28:39.617Z,15.52
2023-05-16T12:33:46.359Z,15.93
2023-05-16T12:38:54.945Z,17.48
2023-05-16T12:44:13.490Z,13.05
2023-05-16T12:49:17.656Z,17.57
2023-05-16T12:54:23.229Z,32.03
2023-05-16T12:59:29.452Z,24.60
2023-05-16T13:04:33.724Z,20.20
2023-05-16T13:09:38.106Z,26.50
2023-05-16T13:14:44.066Z,20.27
2023-05-16T13:19:49.039Z,27.50
2023-05-16T13:24:53.540Z,15.88
2023-05-16T13:30:00.768Z,12.55
2023-05-16T13:35:08.322Z,16.15
2023-05-16T13:40:12.866Z,18.10
2023-05-16T13:45:18.591Z,11.98
2023-05-16T13:50:22.808Z,8.30
2023-05-16T13:55:27.430Z,9.32
2023-05-16T14:00:44.513Z,18.90
2023-05-16T14:05:50.078Z,13.27
2023-05-16T14:10:55.718Z,18.77
2023-05-16T14:16:02.498Z,17.30
2023-05-16T14:21:06.907Z,15.05
2023-05-16T14:26:11.605Z,14.02
2023-05-16T14:31:18.380Z,18.13
2023-05-16T14:36:23.742Z,9.98
2023-05-16T14:41:29.316Z,13.05
2023-05-16T14:46:35.704Z,22.65
2023-05-16T14:51:39.895Z,12.13
2023-05-16T14:56:43.957Z,16.27
2023-05-16T15:01:49.555Z,16.63
2023-05-16T15:06:53.733Z,19.50
2023-05-16T15:11:57.800Z,17.95
2023-05-16T15:17:05.066Z,14.77
2023-05-16T15:22:13.065Z,25.33
2023-05-16T15:27:18.296Z,23.75
2023-05-16T15:32:24.253Z,25.38
2023-05-16T15:37:28.601Z,17.25
2023-05-16T15:42:33.205Z,25.33
2023-05-16T15:47:39.080Z,15.65
2023-05-16T15:52:43.359Z,24.42
2023-05-16T15:57:49.711Z,18.85
2023-05-16T16:02:58.099Z,29.80
2023-05-16T16:08:02.524Z,23.38
2023-05-16T16:13:07.169Z,28.33
2023-05-16T16:18:13.999Z,27.30
2023-05-16T16:23:18.576Z,27.55
2023-05-16T16:28:23.008Z,38.65
2023-05-16T16:33:28.594Z,31.65
2023-05-16T16:38:33.678Z,32.17
2023-05-16T16:43:40.156Z,17.17
2023-05-16T16:48:46.991Z,22.02
2023-05-16T16:53:51.207Z,20.73
2023-05-16T16:58:55.365Z,26.42
2023-05-16T17:04:01.825Z,20.15
2023-05-16T17:09:07.127Z,22.85
2023-05-16T17:14:12.485Z,31.15
2023-05-16T17:19:18.582Z,29.83
2023-05-16T17:24:25.818Z,23.58
2023-05-16T17:29:30.758Z,28.42
2023-05-16T17:34:37.203Z,19.05
2023-05-16T17:39:41.765Z,20.17
2023-05-16T17:44:46.078Z,9.73
2023-05-16T17:49:51.971Z,13.65
2023-05-16T17:54:56.131Z,22.60
2023-05-16T18:00:00.921Z,41.72
2023-05-16T18:05:12.496Z,24.58
2023-05-16T18:10:16.713Z,24.65
2023-05-16T18:15:23.962Z,48.17
2023-05-16T18:20:29.946Z,22.55
2023-05-16T18:25:34.443Z,43.53
2023-05-16T18:30:38.827Z,32.42
2023-05-16T18:35:45.011Z,32.75
2023-05-16T18:40:50.923Z,36.00
2023-05-16T18:45:55.153Z,33.28
2023-05-16T18:51:00.941Z,32.10
2023-05-16T18:56:06.386Z,40.88
2023-05-16T19:01:11.592Z,23.65
2023-05-16T19:06:17.330Z,13.82
2023-05-16T19:11:22.640Z,22.42
2023-05-16T19:16:27.721Z,23.30
2023-05-16T19:21:36.866Z,15.60
2023-05-16T19:26:41.287Z,17.08
2023-05-16T19:31:45.988Z,20.98
2023-05-16T19:36:51.757Z,21.67
2023-05-16T19:41:57.050Z,17.13
2023-05-16T19:47:01.177Z,21.77
2023-05-16T19:52:09.275Z,18.48
2023-05-16T19:57:13.372Z,14.80
2023-05-16T20:02:18.971Z,13.20
2023-05-16T20:07:27.757Z,15.10
2023-05-16T20:12:32.114Z,13.40
2023-05-16T20:17:36.425Z,15.55
2023-05-16T20:22:42.630Z,16.35
2023-05-16T20:27:46.873Z,14.68
2023-05-16T20:32:51.717Z,9.18
2023-05-16T20:37:57.457Z,10.45
2023-05-16T20:43:03.055Z,12.38
2023-05-16T20:48:07.858Z,18.10
2023-05-16T20:53:14.021Z,12.27
2023-05-16T20:58:19.291Z,10.57
2023-05-16T21:03:23.748Z,12.32
2023-05-16T21:08:29.630Z,12.70
2023-05-16T21:13:33.734Z,11.25
2023-05-16T21:18:38.003Z,15.23
2023-05-16T21:23:44.105Z,15.45
2023-05-16T21:28:54.950Z,10.15
2023-05-16T21:34:00.251Z,9.95
2023-05-16T21:39:06.013Z,12.98
2023-05-16T21:44:13.574Z,7.80
2023-05-16T21:49:17.720Z,7.78
2023-05-16T21:54:26.545Z,7.57
2023-05-16T21:59:30.906Z,8.50
2023-05-16T22:04:35.306Z,6.20
2023-05-16T22:09:41.782Z,7.63
2023-05-16T22:14:45.968Z,9.93
2023-05-16T22:19:50.207Z,18.95
2023-05-16T22:24:55.892Z,7.15
2023-05-16T22:30:01.564Z,12.55
2023-05-16T22:35:06.357Z,3.38
2023-05-16T22:40:13.401Z,8.05
2023-05-16T22:45:17.604Z,11.27
2023-05-16T22:50:21.921Z,6.03
2023-05-16T22:55:28.204Z,7.40
2023-05-16T23:00:32.544Z,10.20
2023-05-16T23:05:36.727Z,13.55
2023-05-16T23:10:42.384Z,13.82
2023-05-16T23:15:46.596Z,9.80
2023-05-16T23:20:50.767Z,11.73
2023-05-16T23:25:56.244Z,11.20
2023-05-16T23:31:00.535Z,11.57
2023-05-16T23:36:04.801Z,11.50
2023-05-16T23:41:10.454Z,14.35
2023-05-16T23:46:14.601Z,13.80
2023-05-16T23:51:18.636Z,7.60
2023-05-16T23:56:24.559Z,13.85
